createdAt,value
2023-02-01T00:03:41.877Z,100163.05
2023-02-01T00:22:51.436Z,100138.48
2023-02-01T00:32:22.546Z,100136.88
2023-02-01T00:41:55.770Z,100131.05
2023-02-01T00:51:28.971Z,100128.10
2023-02-01T01:10:42.426Z,100122.00
2023-02-01T01:29:50.205Z,100108.97
2023-02-01T01:39:22.323Z,100107.78
2023-02-01T01:58:24.590Z,100097.92
2023-02-01T02:08:00.615Z,100072.27
2023-02-01T02:17:23.061Z,100051.38
2023-02-01T02:26:51.470Z,100046.70
2023-02-01T02:36:20.990Z,100048.77
2023-02-01T02:45:49.025Z,100062.99
2023-02-01T02:55:17.125Z,100075.58
2023-02-01T03:04:50.433Z,100065.13
2023-02-01T03:14:15.619Z,100066.52
2023-02-01T03:23:51.793Z,100063.84
2023-02-01T03:33:28.826Z,100055.12
2023-02-01T03:42:53.282Z,100036.03
2023-02-01T03:52:33.741Z,100029.38
2023-02-01T04:01:57.172Z,100024.84
2023-02-01T04:11:28.079Z,100040.45
2023-02-01T04:21:02.103Z,100052.31
2023-02-01T04:30:31.202Z,100042.38
2023-02-01T04:40:00.748Z,100043.86
2023-02-01T04:49:32.522Z,100038.12
2023-02-01T04:59:07.995Z,100043.50
2023-02-01T05:08:38.907Z,100049.56
2023-02-01T05:18:09.487Z,100042.68
2023-02-01T05:27:42.543Z,100018.86
2023-02-01T05:37:18.341Z,100005.61
2023-02-01T05:46:49.852Z,100040.23
2023-02-01T05:56:20.626Z,100028.39
2023-02-01T06:05:52.684Z,100042.42
2023-02-01T06:15:26.297Z,100046.58
2023-02-01T06:24:57.819Z,100040.61
2023-02-01T06:34:31.303Z,100052.45
2023-02-01T06:44:04.613Z,100055.12
2023-02-01T06:53:39.605Z,100052.13
2023-02-01T07:03:11.203Z,100046.63
2023-02-01T07:12:45.107Z,100039.36
2023-02-01T07:22:18.887Z,100052.27
2023-02-01T07:31:54.212Z,100045.28
2023-02-01T07:41:26.331Z,100056.17
2023-02-01T07:51:00.230Z,100066.59
2023-02-01T08:00:33.435Z,100089.23
2023-02-01T08:10:08.715Z,100086.64
2023-02-01T08:19:41.281Z,100097.55
2023-02-01T08:29:15.662Z,100110.94
2023-02-01T08:38:49.932Z,100112.13
2023-02-01T08:48:24.291Z,100114.92
2023-02-01T08:57:59.929Z,100108.20
2023-02-01T09:07:32.105Z,100115.43
2023-02-01T09:17:06.115Z,100126.53
2023-02-01T09:26:41.591Z,100147.92
2023-02-01T09:36:14.212Z,100171.23
2023-02-01T09:45:48.472Z,100189.98
2023-02-01T09:55:22.189Z,100184.78
2023-02-01T10:04:55.755Z,100193.06
2023-02-01T10:14:30.026Z,100191.86
2023-02-01T10:15:34.118Z,100194.31
2023-02-01T10:25:05.469Z,100166.13
2023-02-01T10:26:07.937Z,100177.03
2023-02-01T10:27:10.412Z,100173.41
2023-02-01T10:28:12.795Z,100173.89
2023-02-01T10:29:15.301Z,100177.16
2023-02-01T10:38:47.475Z,100175.47
2023-02-01T10:39:49.891Z,100166.73
2023-02-01T10:40:52.258Z,100173.74
2023-02-01T10:41:56.335Z,100166.01
2023-02-01T10:43:00.273Z,100164.00
2023-02-01T10:44:02.557Z,100159.14
2023-02-01T10:45:04.944Z,100156.05
2023-02-01T10:46:07.418Z,100156.39
2023-02-01T10:47:09.765Z,100156.44
2023-02-01T10:48:12.104Z,100153.53
2023-02-01T10:49:14.633Z,100158.20
2023-02-01T10:50:17.024Z,100142.03
2023-02-01T10:51:21.088Z,100143.32
2023-02-01T10:52:23.560Z,100139.13
2023-02-01T10:53:25.949Z,100139.28
2023-02-01T10:54:30.107Z,100145.86
2023-02-01T10:55:30.836Z,100132.43
2023-02-01T10:56:33.218Z,100135.30
2023-02-01T10:57:35.705Z,100141.14
2023-02-01T10:58:38.087Z,100135.20
2023-02-01T10:59:43.677Z,100138.60
2023-02-01T11:00:44.424Z,100136.00
2023-02-01T11:01:48.487Z,100142.82
2023-02-01T11:02:52.400Z,100140.13
2023-02-01T11:12:23.703Z,100126.66
2023-02-01T11:13:27.631Z,100118.55
2023-02-01T11:14:31.424Z,100118.54
2023-02-01T11:15:35.381Z,100123.72
2023-02-01T11:16:37.731Z,100122.02
2023-02-01T11:17:40.118Z,100127.71
2023-02-01T11:18:42.504Z,100124.39
2023-02-01T11:19:46.607Z,100130.36
2023-02-01T11:20:48.843Z,100114.45
2023-02-01T11:21:52.901Z,100124.22
2023-02-01T11:22:55.192Z,100120.20
2023-02-01T11:23:59.238Z,100128.72
2023-02-01T11:33:31.306Z,100117.88
2023-02-01T11:34:33.641Z,100106.42
2023-02-01T11:35:37.696Z,100098.95
2023-02-01T11:36:40.033Z,100110.47
2023-02-01T11:37:42.492Z,100105.70
2023-02-01T11:38:44.889Z,100108.85
2023-02-01T11:39:48.895Z,100108.00
2023-02-01T11:40:51.306Z,100119.23
2023-02-01T11:41:53.724Z,100103.85
2023-02-01T11:42:56.188Z,100110.36
2023-02-01T11:43:58.576Z,100119.57
2023-02-01T11:45:01.035Z,100106.43
2023-02-01T11:46:05.231Z,100105.44
2023-02-01T11:47:09.130Z,100102.94
2023-02-01T11:48:14.971Z,100107.45
2023-02-01T11:49:14.044Z,100107.15
2023-02-01T11:50:16.495Z,100101.56
2023-02-01T11:51:18.884Z,100098.16
2023-02-01T11:52:21.301Z,100101.71
2023-02-01T11:53:23.735Z,100095.44
2023-02-01T11:54:26.123Z,100099.55
2023-02-01T11:55:28.573Z,100101.80
2023-02-01T11:56:31.092Z,100097.82
2023-02-01T11:57:33.461Z,100104.16
2023-02-01T11:58:35.910Z,100105.19
2023-02-01T11:59:40.946Z,100102.94
2023-02-01T12:00:40.806Z,100115.16
2023-02-01T12:01:43.164Z,100101.52
2023-02-01T12:02:47.364Z,100101.20
2023-02-01T12:03:49.595Z,100102.98
2023-02-01T12:04:53.579Z,100096.28
2023-02-01T12:05:57.507Z,100097.73
2023-02-01T12:06:59.855Z,100096.91
2023-02-01T12:08:03.859Z,100086.30
2023-02-01T12:09:06.275Z,100084.63
2023-02-01T12:10:08.721Z,100079.78
2023-02-01T12:11:12.737Z,100086.30
2023-02-01T12:12:15.027Z,100085.25
2023-02-01T12:13:17.478Z,100084.11
2023-02-01T12:14:21.492Z,100080.19
2023-02-01T12:15:24.109Z,100085.34
2023-02-01T12:16:26.406Z,100079.80
2023-02-01T12:17:28.818Z,100080.85
2023-02-01T12:18:31.242Z,100072.12
2023-02-01T12:19:35.210Z,100070.30
2023-02-01T12:20:37.618Z,100067.13
2023-02-01T12:21:40.006Z,100069.11
2023-02-01T12:22:42.413Z,100065.80
2023-02-01T12:23:44.800Z,100065.34
2023-02-01T12:24:47.265Z,100062.60
2023-02-01T12:25:49.678Z,100054.27
2023-02-01T12:26:53.853Z,100054.68
2023-02-01T12:27:56.079Z,100060.73
2023-02-01T12:28:58.574Z,100055.75
2023-02-01T12:30:01.208Z,100055.52
2023-02-01T12:31:03.624Z,100059.96
2023-02-01T12:32:06.028Z,100067.17
2023-02-01T12:33:08.342Z,100050.05
2023-02-01T12:34:10.865Z,100049.84
2023-02-01T12:35:14.794Z,100052.07
2023-02-01T12:36:17.064Z,100065.55
2023-02-01T12:37:19.490Z,100056.83
2023-02-01T12:38:23.508Z,100056.31
2023-02-01T12:39:25.924Z,100061.41
2023-02-01T12:40:28.273Z,100061.23
2023-02-01T12:41:30.687Z,100055.11
2023-02-01T12:42:33.090Z,100053.47
2023-02-01T12:43:35.500Z,100051.15
2023-02-01T12:44:37.938Z,100047.39
2023-02-01T12:45:40.383Z,100037.69
2023-02-01T12:46:42.742Z,100037.95
2023-02-01T12:47:45.151Z,100045.28
2023-02-01T12:48:47.595Z,100037.86
2023-02-01T12:49:49.972Z,100029.92
2023-02-01T12:50:52.389Z,100026.08
2023-02-01T12:51:54.883Z,100026.57
2023-02-01T12:52:58.911Z,100015.66
2023-02-01T12:54:01.287Z,100035.09
2023-02-01T12:55:03.755Z,100032.62
2023-02-01T12:56:06.181Z,100039.67
2023-02-01T12:57:08.551Z,100033.59
2023-02-01T12:58:10.976Z,100030.95
2023-02-01T12:59:13.400Z,100042.04
2023-02-01T13:00:15.844Z,100033.02
2023-02-01T13:01:19.879Z,100029.71
2023-02-01T13:02:22.279Z,100026.58
2023-02-01T13:03:24.550Z,100026.98
2023-02-01T13:04:28.574Z,100019.84
2023-02-01T13:05:30.891Z,100025.23
2023-02-01T13:06:33.287Z,100021.76
2023-02-01T13:07:37.324Z,100014.96
2023-02-01T13:08:39.628Z,100017.86
2023-02-01T13:09:41.987Z,100018.12
2023-02-01T13:10:44.446Z,100022.66
2023-02-01T13:11:48.476Z,100030.08
2023-02-01T13:12:50.840Z,100022.23
2023-02-01T13:13:54.828Z,100029.50
2023-02-01T13:14:57.133Z,100018.69
2023-02-01T13:15:59.546Z,100030.21
2023-02-01T13:17:02.091Z,100029.30
2023-02-01T13:18:04.370Z,100021.63
2023-02-01T13:19:06.803Z,100010.49
2023-02-01T13:20:10.803Z,100016.75
2023-02-01T13:21:13.073Z,100028.14
2023-02-01T13:22:15.528Z,100020.11
2023-02-01T13:23:18.878Z,100018.61
2023-02-01T13:24:20.449Z,100017.88
2023-02-01T13:25:23.121Z,100021.11
2023-02-01T13:26:25.282Z,100012.84
2023-02-01T13:27:27.663Z,100025.39
2023-02-01T13:28:31.732Z,100020.91
2023-02-01T13:29:34.025Z,100024.43
2023-02-01T13:30:38.161Z,100027.44
2023-02-01T13:31:40.665Z,100030.75
2023-02-01T13:32:57.051Z,100031.33
2023-02-01T13:33:52.138Z,100031.22
2023-02-01T13:34:47.598Z,100033.11
2023-02-01T13:35:49.998Z,100030.04
2023-02-01T13:36:52.418Z,100027.98
2023-02-01T13:37:54.803Z,100023.55
2023-02-01T13:38:57.215Z,100038.03
2023-02-01T13:39:59.583Z,100027.45
2023-02-01T13:41:01.997Z,100018.63
2023-02-01T13:42:04.411Z,100019.24
2023-02-01T13:43:06.895Z,100012.59
2023-02-01T13:44:09.442Z,100004.37
2023-02-01T13:45:13.382Z,100009.48
2023-02-01T13:46:17.353Z,100022.67
2023-02-01T13:47:19.680Z,100016.33
2023-02-01T13:48:22.124Z,100018.74
2023-02-01T13:49:24.514Z,100021.56
2023-02-01T13:50:26.985Z,100021.20
2023-02-01T13:51:29.412Z,100019.86
2023-02-01T13:52:31.818Z,100022.28
2023-02-01T13:53:34.238Z,100019.23
2023-02-01T13:54:38.266Z,100012.18
2023-02-01T13:55:40.592Z,100018.30
2023-02-01T13:56:42.971Z,100020.91
2023-02-01T13:57:45.409Z,100020.36
2023-02-01T13:58:47.908Z,100020.95
2023-02-01T13:59:50.317Z,100031.87
2023-02-01T14:00:52.744Z,100023.48
2023-02-01T14:01:55.163Z,100021.97
2023-02-01T14:02:59.100Z,100023.94
2023-02-01T14:04:01.439Z,100030.32
2023-02-01T14:05:03.918Z,100028.02
2023-02-01T14:06:07.930Z,100044.72
2023-02-01T14:07:10.302Z,100038.95
2023-02-01T14:08:12.726Z,100030.63
2023-02-01T14:09:15.441Z,100040.36
2023-02-01T14:10:17.579Z,100045.81
2023-02-01T14:11:20.039Z,100039.11
2023-02-01T14:12:24.070Z,100046.04
2023-02-01T14:13:27.926Z,100040.78
2023-02-01T14:14:31.806Z,100032.60
2023-02-01T14:15:35.767Z,100041.76
2023-02-01T14:16:39.580Z,100032.16
2023-02-01T14:17:42.015Z,100029.39
2023-02-01T14:18:44.311Z,100028.29
2023-02-01T14:19:47.674Z,100030.05
2023-02-01T14:20:51.598Z,100016.07
2023-02-01T14:21:53.910Z,100017.88
2023-02-01T14:22:56.328Z,100020.72
2023-02-01T14:23:58.812Z,100012.33
2023-02-01T14:25:01.176Z,100014.42
2023-02-01T14:26:04.609Z,100020.58
2023-02-01T14:27:06.996Z,100024.59
2023-02-01T14:28:11.216Z,100023.70
2023-02-01T14:29:20.231Z,100031.50
2023-02-01T14:30:15.912Z,100022.04
2023-02-01T14:31:18.507Z,100015.73
2023-02-01T14:32:20.685Z,100021.27
2023-02-01T14:33:24.725Z,100021.81
2023-02-01T14:34:27.044Z,100015.70
2023-02-01T14:35:31.246Z,100010.34
2023-02-01T14:36:35.121Z,100012.32
2023-02-01T14:37:37.441Z,100012.61
2023-02-01T14:38:39.913Z,100008.77
2023-02-01T14:39:42.252Z,99997.72
2023-02-01T14:40:46.257Z,100003.28
2023-02-01T14:41:48.557Z,100007.77
2023-02-01T14:42:52.564Z,100002.81
2023-02-01T14:43:56.483Z,99997.52
2023-02-01T14:45:00.401Z,100001.17
2023-02-01T14:46:02.702Z,99998.73
2023-02-01T14:47:05.055Z,100000.97
2023-02-01T14:48:07.475Z,99996.90
2023-02-01T14:49:09.885Z,99998.05
2023-02-01T14:50:13.870Z,100010.05
2023-02-01T14:51:16.193Z,100004.34
2023-02-01T14:52:18.622Z,100003.70
2023-02-01T14:53:21.055Z,99997.35
2023-02-01T15:02:53.237Z,100001.90
2023-02-01T15:03:55.647Z,100006.49
2023-02-01T15:04:58.109Z,100004.53
2023-02-01T15:06:00.539Z,99996.80
2023-02-01T15:07:02.966Z,99994.80
2023-02-01T15:08:05.365Z,100001.96
2023-02-01T15:09:07.790Z,99999.95
2023-02-01T15:10:10.181Z,99997.83
2023-02-01T15:11:12.606Z,99995.63
2023-02-01T15:12:15.019Z,100003.85
2023-02-01T15:13:17.425Z,100006.55
2023-02-01T15:14:21.520Z,100007.95
2023-02-01T15:15:25.914Z,100010.69
2023-02-01T15:16:27.669Z,100000.02
2023-02-01T15:17:30.045Z,100003.66
2023-02-01T15:18:32.413Z,100007.13
2023-02-01T15:19:36.509Z,100006.54
2023-02-01T15:20:38.805Z,100004.09
2023-02-01T15:21:41.257Z,100007.61
2023-02-01T15:22:45.241Z,100014.47
2023-02-01T15:23:49.132Z,100013.97
2023-02-01T15:24:52.394Z,100012.44
2023-02-01T15:25:56.330Z,100017.68
2023-02-01T15:26:58.495Z,100017.10
2023-02-01T15:28:00.850Z,100017.23
2023-02-01T15:29:03.386Z,100022.09
2023-02-01T15:30:05.775Z,100027.50
2023-02-01T15:31:09.846Z,100023.20
2023-02-01T15:32:12.111Z,100018.72
2023-02-01T15:33:14.469Z,100024.56
2023-02-01T15:34:16.890Z,100019.23
2023-02-01T15:35:19.382Z,100022.08
2023-02-01T15:36:21.769Z,100023.33
2023-02-01T15:45:53.621Z,100023.86
2023-02-01T15:46:56.008Z,100028.38
2023-02-01T15:47:59.997Z,100026.50
2023-02-01T15:49:02.272Z,100035.61
2023-02-01T15:50:04.720Z,100034.97
2023-02-01T15:59:36.764Z,100023.56
2023-02-01T16:09:10.612Z,100028.11
2023-02-01T16:10:14.693Z,100026.76
2023-02-01T16:19:46.064Z,100032.89
2023-02-01T16:20:48.525Z,100033.54
2023-02-01T16:21:50.975Z,100032.83
2023-02-01T16:31:24.179Z,100031.95
2023-02-01T16:40:58.900Z,100046.75
2023-02-01T16:50:31.812Z,100029.24
2023-02-01T16:51:34.245Z,100030.11
2023-02-01T17:01:07.535Z,100024.38
2023-02-01T17:10:39.996Z,100013.88
2023-02-01T17:20:13.316Z,100005.76
2023-02-01T17:29:46.411Z,100016.91
2023-02-01T17:39:15.734Z,100023.37
2023-02-01T17:48:49.926Z,100029.34
2023-02-01T17:58:21.460Z,100023.16
2023-02-01T18:07:53.403Z,100030.98
2023-02-01T18:17:24.680Z,100033.90
2023-02-01T18:26:59.250Z,100031.23
2023-02-01T18:36:29.153Z,100030.00
2023-02-01T18:46:01.843Z,100033.45
2023-02-01T18:55:35.095Z,100041.39
2023-02-01T19:05:07.109Z,100046.77
2023-02-01T19:14:39.626Z,100035.77
2023-02-01T19:24:12.909Z,100045.17
2023-02-01T19:33:41.162Z,100054.58
2023-02-01T19:43:13.990Z,100053.02
2023-02-01T19:52:46.556Z,100049.22
2023-02-01T20:02:17.415Z,100048.68
2023-02-01T20:11:49.523Z,100049.47
2023-02-01T20:21:20.272Z,100046.25
2023-02-01T20:30:54.359Z,100059.13
2023-02-01T20:40:26.107Z,100052.03
2023-02-01T20:49:55.753Z,100055.67
2023-02-01T20:59:26.053Z,100048.64
2023-02-01T21:09:00.370Z,100037.24
2023-02-01T21:18:33.629Z,100038.00
2023-02-01T21:28:03.338Z,100061.50
2023-02-01T21:37:40.398Z,100074.05
2023-02-01T21:47:08.745Z,100064.91
2023-02-01T21:56:42.664Z,100070.18
2023-02-01T22:06:14.377Z,100067.22
2023-02-01T22:15:47.531Z,100063.83
2023-02-01T22:25:21.589Z,100069.47
2023-02-01T22:34:56.300Z,100087.68
2023-02-01T22:44:28.119Z,100088.85
2023-02-01T22:54:01.603Z,100094.06
2023-02-01T23:03:37.263Z,100098.16
2023-02-01T23:13:09.169Z,100102.42
2023-02-01T23:22:43.252Z,100096.13
2023-02-01T23:32:16.807Z,100101.88
2023-02-01T23:33:20.781Z,100098.14
2023-02-01T23:42:52.268Z,100105.42
2023-02-01T23:52:26.175Z,100097.80
